createdAt,value
2022-09-24T00:00:23.287Z,30.48
2022-09-24T00:01:23.363Z,30.58
2022-09-24T00:02:23.385Z,30.38
2022-09-24T00:03:23.335Z,30.48
2022-09-24T00:04:23.748Z,30.38
2022-09-24T00:05:23.286Z,30.38
2022-09-24T00:06:23.326Z,30.48
2022-09-24T00:07:23.286Z,30.38
2022-09-24T00:08:23.287Z,30.38
2022-09-24T00:09:23.288Z,30.37
2022-09-24T00:10:23.288Z,30.58
2022-09-24T00:11:23.286Z,30.48
2022-09-24T00:12:23.288Z,30.38
2022-09-24T00:13:23.286Z,30.38
2022-09-24T00:14:23.287Z,30.48
2022-09-24T00:15:23.287Z,30.58
2022-09-24T00:16:23.416Z,30.38
2022-09-24T00:17:23.286Z,30.58
2022-09-24T00:18:23.287Z,30.48
2022-09-24T00:19:23.286Z,30.38
2022-09-24T00:20:23.288Z,30.58
2022-09-24T00:21:23.287Z,30.48
2022-09-24T00:22:23.309Z,30.48
2022-09-24T00:23:23.285Z,30.48
2022-09-24T00:24:23.289Z,30.58
2022-09-24T00:25:23.290Z,30.38
2022-09-24T00:26:23.288Z,30.48
2022-09-24T00:27:23.287Z,30.29
2022-09-24T00:28:23.288Z,30.48
2022-09-24T00:29:23.288Z,30.48
2022-09-24T00:30:23.287Z,30.48
2022-09-24T00:31:23.357Z,30.48
2022-09-24T00:32:23.289Z,30.48
2022-09-24T00:33:23.288Z,30.58
2022-09-24T00:34:23.289Z,30.58
2022-09-24T00:35:23.288Z,30.38
2022-09-24T00:36:23.289Z,30.38
2022-09-24T00:37:23.288Z,30.48
2022-09-24T00:38:23.322Z,30.38
2022-09-24T00:39:23.289Z,30.48
2022-09-24T00:40:23.309Z,30.58
2022-09-24T00:41:23.288Z,30.48
2022-09-24T00:42:23.291Z,30.48
2022-09-24T00:43:23.288Z,30.48
2022-09-24T00:44:23.292Z,30.58
2022-09-24T00:45:23.289Z,30.38
2022-09-24T00:46:23.383Z,30.38
2022-09-24T00:47:23.297Z,30.48
2022-09-24T00:48:23.299Z,30.38
2022-09-24T00:49:23.292Z,30.37
2022-09-24T00:50:23.289Z,30.68
2022-09-24T00:51:23.291Z,30.68
2022-09-24T00:52:23.290Z,30.68
2022-09-24T00:53:23.290Z,31.05
2022-09-24T00:54:23.488Z,30.68
2022-09-24T00:55:23.290Z,30.97
2022-09-24T00:56:23.294Z,31.07
2022-09-24T00:57:23.291Z,30.97
2022-09-24T00:58:23.290Z,30.87
2022-09-24T00:59:23.290Z,30.87
2022-09-24T01:00:23.292Z,31.07
2022-09-24T01:01:23.345Z,30.97
2022-09-24T01:02:23.407Z,30.87
2022-09-24T01:03:23.292Z,30.87
2022-09-24T01:04:23.291Z,30.87
2022-09-24T01:05:23.293Z,30.87
2022-09-24T01:06:23.292Z,30.87
2022-09-24T01:07:23.292Z,30.87
2022-09-24T01:08:23.292Z,30.77
2022-09-24T01:09:23.292Z,30.87
2022-09-24T01:10:23.314Z,30.87
2022-09-24T01:11:23.291Z,30.87
2022-09-24T01:12:23.292Z,30.87
2022-09-24T01:13:23.292Z,30.68
2022-09-24T01:14:23.295Z,30.58
2022-09-24T01:15:23.295Z,30.87
2022-09-24T01:16:23.518Z,30.87
2022-09-24T01:17:23.293Z,31.16
2022-09-24T01:18:23.291Z,31.26
2022-09-24T01:19:23.292Z,31.07
2022-09-24T01:20:23.292Z,31.05
2022-09-24T01:21:23.292Z,31.07
2022-09-24T01:22:23.293Z,31.15
2022-09-24T01:23:23.294Z,31.26
2022-09-24T01:24:23.296Z,31.16
2022-09-24T01:25:23.292Z,31.07
2022-09-24T01:26:23.315Z,31.07
2022-09-24T01:27:23.293Z,31.16
2022-09-24T01:28:23.294Z,31.07
2022-09-24T01:29:23.293Z,31.07
2022-09-24T01:30:23.292Z,31.26
2022-09-24T01:31:23.321Z,31.07
2022-09-24T01:32:23.295Z,31.07
2022-09-24T01:33:23.294Z,31.07
2022-09-24T01:34:23.299Z,31.07
2022-09-24T01:35:23.293Z,31.07
2022-09-24T01:36:23.293Z,31.26
2022-09-24T01:37:23.447Z,31.16
2022-09-24T01:38:23.296Z,31.16
2022-09-24T01:39:23.294Z,31.16
2022-09-24T01:40:23.392Z,31.26
2022-09-24T01:41:23.293Z,31.26
2022-09-24T01:42:23.314Z,31.24
2022-09-24T01:43:23.295Z,31.07
2022-09-24T01:44:23.295Z,31.26
2022-09-24T01:45:23.294Z,31.26
2022-09-24T01:46:23.358Z,31.26
2022-09-24T01:47:23.293Z,31.35
2022-09-24T01:48:23.295Z,31.26
2022-09-24T01:49:23.296Z,31.26
2022-09-24T01:50:23.295Z,31.35
2022-09-24T01:51:23.294Z,31.35
2022-09-24T01:52:23.295Z,31.45
2022-09-24T01:53:23.293Z,31.07
2022-09-24T01:54:23.296Z,31.35
2022-09-24T01:55:23.296Z,31.26
2022-09-24T01:56:23.295Z,31.26
2022-09-24T01:57:23.303Z,31.26
2022-09-24T01:58:23.316Z,31.26
2022-09-24T01:59:23.296Z,31.26
2022-09-24T02:00:23.297Z,31.26
2022-09-24T02:01:23.342Z,31.45
2022-09-24T02:02:23.405Z,31.16
2022-09-24T02:03:23.298Z,31.35
2022-09-24T02:04:23.297Z,31.35
2022-09-24T02:05:23.295Z,31.26
2022-09-24T02:06:23.296Z,31.35
2022-09-24T02:07:23.296Z,31.55
2022-09-24T02:08:23.299Z,31.45
2022-09-24T02:09:23.297Z,31.45
2022-09-24T02:10:23.299Z,31.45
2022-09-24T02:11:23.327Z,31.24
2022-09-24T02:12:23.296Z,31.45
2022-09-24T02:13:23.297Z,31.45
2022-09-24T02:14:23.318Z,31.45
2022-09-24T02:15:23.299Z,31.45
2022-09-24T02:16:23.405Z,31.55
2022-09-24T02:17:23.296Z,31.45
2022-09-24T02:18:23.296Z,31.45
2022-09-24T02:19:23.298Z,31.55
2022-09-24T02:20:23.299Z,31.55
2022-09-24T02:21:23.296Z,31.65
2022-09-24T02:22:23.296Z,31.84
2022-09-24T02:23:23.296Z,31.74
2022-09-24T02:24:23.298Z,31.74
2022-09-24T02:25:23.298Z,31.65
2022-09-24T02:26:23.298Z,31.84
2022-09-24T02:27:23.299Z,31.74
2022-09-24T02:28:23.296Z,31.65
2022-09-24T02:29:23.301Z,31.74
2022-09-24T02:30:23.319Z,31.84
2022-09-24T02:31:23.367Z,31.74
2022-09-24T02:32:23.297Z,31.74
2022-09-24T02:33:23.298Z,31.65
2022-09-24T02:34:23.298Z,31.74
2022-09-24T02:35:23.298Z,31.74
2022-09-24T02:36:23.300Z,31.74
2022-09-24T02:37:23.300Z,31.74
2022-09-24T02:38:23.299Z,31.65
2022-09-24T02:39:23.300Z,31.94
2022-09-24T02:40:23.363Z,31.94
2022-09-24T02:41:23.301Z,32.04
2022-09-24T02:42:23.299Z,32.04
2022-09-24T02:43:23.300Z,31.94
2022-09-24T02:44:23.299Z,32.23
2022-09-24T02:45:23.301Z,32.32
2022-09-24T02:46:23.354Z,32.13
2022-09-24T02:47:23.300Z,32.23
2022-09-24T02:48:23.299Z,31.84
2022-09-24T02:49:23.300Z,32.32
2022-09-24T02:50:23.299Z,32.13
2022-09-24T02:51:23.301Z,32.12
2022-09-24T02:52:23.303Z,32.13
2022-09-24T02:53:23.303Z,32.13
2022-09-24T02:54:23.299Z,32.13
2022-09-24T02:55:23.302Z,32.13
2022-09-24T02:56:23.303Z,32.23
2022-09-24T02:57:23.303Z,32.13
2022-09-24T02:58:23.301Z,32.13
2022-09-24T02:59:23.300Z,32.32
2022-09-24T03:00:23.301Z,32.23
2022-09-24T03:01:23.329Z,32.13
2022-09-24T03:02:23.452Z,32.23
2022-09-24T03:03:23.300Z,32.04
2022-09-24T03:04:23.299Z,32.32
2022-09-24T03:05:23.302Z,32.32
2022-09-24T03:06:23.304Z,32.32
2022-09-24T03:07:23.301Z,32.42
2022-09-24T03:08:23.301Z,32.32
2022-09-24T03:09:23.301Z,32.32
2022-09-24T03:10:23.301Z,32.32
2022-09-24T03:11:23.305Z,32.42
2022-09-24T03:12:23.302Z,32.42
2022-09-24T03:13:23.308Z,32.32
2022-09-24T03:14:23.303Z,32.32
2022-09-24T03:15:23.306Z,32.32
2022-09-24T03:16:23.389Z,32.42
2022-09-24T03:17:23.306Z,32.31
2022-09-24T03:18:23.322Z,32.42
2022-09-24T03:19:23.301Z,32.32
2022-09-24T03:20:23.302Z,32.32
2022-09-24T03:21:23.305Z,32.32
2022-09-24T03:22:23.303Z,32.04
2022-09-24T03:23:23.301Z,32.02
2022-09-24T03:24:23.301Z,32.23
2022-09-24T03:25:23.302Z,32.04
2022-09-24T03:26:23.304Z,32.32
2022-09-24T03:27:23.304Z,32.32
2022-09-24T03:28:23.302Z,32.23
2022-09-24T03:29:23.303Z,32.04
2022-09-24T03:30:23.301Z,32.02
2022-09-24T03:31:23.371Z,32.13
2022-09-24T03:32:23.302Z,32.13
2022-09-24T03:33:23.308Z,32.13
2022-09-24T03:34:23.325Z,32.13
2022-09-24T03:35:23.303Z,31.94
2022-09-24T03:36:23.306Z,32.13
2022-09-24T03:37:23.405Z,31.94
2022-09-24T03:38:23.303Z,31.94
2022-09-24T03:39:23.303Z,31.94
2022-09-24T03:40:23.376Z,32.23
2022-09-24T03:41:23.305Z,32.04
2022-09-24T03:42:23.306Z,32.04
2022-09-24T03:43:23.305Z,32.23
2022-09-24T03:44:23.305Z,32.13
2022-09-24T03:45:23.305Z,32.13
2022-09-24T03:46:23.368Z,32.32
2022-09-24T03:47:23.305Z,32.13
2022-09-24T03:48:23.308Z,32.23
2022-09-24T03:49:23.306Z,32.42
2022-09-24T03:50:23.326Z,32.52
2022-09-24T03:51:23.310Z,32.42
2022-09-24T03:52:23.305Z,32.32
2022-09-24T03:53:23.307Z,32.32
2022-09-24T03:54:23.304Z,32.52
2022-09-24T03:55:23.305Z,32.62
2022-09-24T03:56:23.304Z,32.32
2022-09-24T03:57:23.312Z,32.52
2022-09-24T03:58:23.305Z,32.32
2022-09-24T03:59:23.305Z,32.42
2022-09-24T04:00:23.306Z,32.42
2022-09-24T04:01:23.386Z,32.23
2022-09-24T04:02:23.305Z,32.23
2022-09-24T04:03:23.364Z,32.32
2022-09-24T04:04:23.305Z,32.42
2022-09-24T04:05:23.308Z,32.42
2022-09-24T04:06:26.004Z,32.23
2022-09-24T04:07:23.307Z,32.42
2022-09-24T04:08:23.306Z,32.52
2022-09-24T04:09:23.307Z,32.52
2022-09-24T04:10:23.305Z,32.71
2022-09-24T04:11:23.307Z,32.71
2022-09-24T04:12:23.306Z,32.71
2022-09-24T04:13:23.309Z,32.62
2022-09-24T04:14:23.306Z,32.62
2022-09-24T04:15:23.307Z,32.62
2022-09-24T04:16:23.376Z,32.52
2022-09-24T04:17:23.313Z,32.62
2022-09-24T04:18:23.308Z,32.52
2022-09-24T04:19:23.308Z,32.62
2022-09-24T04:20:23.308Z,32.62
2022-09-24T04:21:23.308Z,32.62
2022-09-24T04:22:23.330Z,32.41
2022-09-24T04:23:23.308Z,32.62
2022-09-24T04:24:23.307Z,32.52
2022-09-24T04:25:23.311Z,32.62
2022-09-24T04:26:23.312Z,32.52
2022-09-24T04:27:23.308Z,32.52
2022-09-24T04:28:23.308Z,32.52
2022-09-24T04:29:23.309Z,32.52
2022-09-24T04:30:23.308Z,32.81
2022-09-24T04:31:23.387Z,32.91
2022-09-24T04:32:23.309Z,32.91
2022-09-24T04:33:23.309Z,32.71
2022-09-24T04:34:23.309Z,32.71
2022-09-24T04:35:23.313Z,32.81
2022-09-24T04:36:23.314Z,32.81
2022-09-24T04:37:23.309Z,32.81
2022-09-24T04:38:23.415Z,32.71
2022-09-24T04:39:23.310Z,32.52
2022-09-24T04:40:23.411Z,32.71
2022-09-24T04:41:23.311Z,32.81
2022-09-24T04:42:23.310Z,32.62
2022-09-24T04:43:23.310Z,32.81
2022-09-24T04:44:23.309Z,32.62
2022-09-24T04:45:23.312Z,32.62
2022-09-24T04:46:23.381Z,32.42
2022-09-24T04:47:23.310Z,32.71
2022-09-24T04:48:23.309Z,32.62
2022-09-24T04:49:23.311Z,32.71
2022-09-24T04:50:23.310Z,32.62
2022-09-24T04:51:23.311Z,32.42
2022-09-24T04:52:23.311Z,32.62
2022-09-24T04:53:23.311Z,32.71
2022-09-24T04:54:23.333Z,32.71
2022-09-24T04:55:23.312Z,32.62
2022-09-24T04:56:23.366Z,32.62
2022-09-24T04:57:23.313Z,32.42
2022-09-24T04:58:23.309Z,32.42
2022-09-24T04:59:23.314Z,32.91
2022-09-24T05:00:23.311Z,32.62
2022-09-24T05:01:23.379Z,32.62
2022-09-24T05:02:23.438Z,32.71
2022-09-24T05:03:23.312Z,32.62
2022-09-24T05:04:23.314Z,32.42
2022-09-24T05:05:23.313Z,32.71
2022-09-24T05:06:23.313Z,32.62
2022-09-24T05:07:23.312Z,32.71
2022-09-24T05:08:23.312Z,32.71
2022-09-24T05:09:23.312Z,32.62
2022-09-24T05:10:23.429Z,32.62
2022-09-24T05:11:23.313Z,32.62
2022-09-24T05:12:23.315Z,32.71
2022-09-24T05:13:23.315Z,32.62
2022-09-24T05:14:23.313Z,32.71
2022-09-24T05:15:23.314Z,32.71
2022-09-24T05:16:23.427Z,32.71
2022-09-24T05:17:23.313Z,32.91
2022-09-24T05:18:23.313Z,32.81
2022-09-24T05:19:23.315Z,32.91
2022-09-24T05:20:23.313Z,32.81
2022-09-24T05:21:23.315Z,32.71
2022-09-24T05:22:23.314Z,32.91
2022-09-24T05:23:23.314Z,32.81
2022-09-24T05:24:23.312Z,32.81
2022-09-24T05:25:23.358Z,33.01
2022-09-24T05:26:23.336Z,32.91
2022-09-24T05:27:23.314Z,32.91
2022-09-24T05:28:23.314Z,32.71
2022-09-24T05:29:23.317Z,32.71
2022-09-24T05:30:23.312Z,32.91
2022-09-24T05:31:23.375Z,32.62
2022-09-24T05:32:23.316Z,32.71
2022-09-24T05:33:23.316Z,32.91
2022-09-24T05:34:23.319Z,32.91
2022-09-24T05:35:23.396Z,32.89
2022-09-24T05:36:23.314Z,32.91
2022-09-24T05:37:23.316Z,33.01
2022-09-24T05:38:23.315Z,32.91
2022-09-24T05:39:23.317Z,32.81
2022-09-24T05:40:23.386Z,33.01
2022-09-24T05:41:23.316Z,32.91
2022-09-24T05:42:23.340Z,32.91
2022-09-24T05:43:23.316Z,33.01
2022-09-24T05:44:23.316Z,32.91
2022-09-24T05:45:23.317Z,32.91
2022-09-24T05:46:23.355Z,32.79
2022-09-24T05:47:23.316Z,32.91
2022-09-24T05:48:23.315Z,33.01
2022-09-24T05:49:23.317Z,33.01
2022-09-24T05:50:23.316Z,33.01
2022-09-24T05:51:23.316Z,32.91
2022-09-24T05:52:23.317Z,32.91
2022-09-24T05:53:23.322Z,32.91
2022-09-24T05:54:23.315Z,32.89
2022-09-24T05:55:23.317Z,32.91
2022-09-24T05:56:23.317Z,32.91
2022-09-24T05:57:23.318Z,32.81
2022-09-24T05:58:23.424Z,32.81
2022-09-24T05:59:23.318Z,32.91
2022-09-24T06:00:23.317Z,32.81
2022-09-24T06:01:23.390Z,32.89
2022-09-24T06:02:23.374Z,32.91
2022-09-24T06:03:23.422Z,33.01
2022-09-24T06:04:23.319Z,32.89
2022-09-24T06:05:23.320Z,32.81
2022-09-24T06:06:23.317Z,32.91
2022-09-24T06:07:23.318Z,32.81
2022-09-24T06:08:23.318Z,32.99
2022-09-24T06:09:23.322Z,32.81
2022-09-24T06:10:23.317Z,32.91
2022-09-24T06:11:23.320Z,32.91
2022-09-24T06:12:23.318Z,32.81
2022-09-24T06:13:23.320Z,32.91
2022-09-24T06:14:23.423Z,32.71
2022-09-24T06:15:23.322Z,33.01
2022-09-24T06:16:23.439Z,32.71
2022-09-24T06:17:23.318Z,32.91
2022-09-24T06:18:23.318Z,33.01
2022-09-24T06:19:23.320Z,33.01
2022-09-24T06:20:23.321Z,32.91
2022-09-24T06:21:23.321Z,32.91
2022-09-24T06:22:28.192Z,32.91
2022-09-24T06:23:23.320Z,32.91
2022-09-24T06:24:23.319Z,32.91
2022-09-24T06:25:23.321Z,32.91
2022-09-24T06:26:23.322Z,32.71
2022-09-24T06:27:23.322Z,32.71
2022-09-24T06:28:23.319Z,32.71
2022-09-24T06:29:23.322Z,32.91
2022-09-24T06:30:23.343Z,32.91
2022-09-24T06:31:23.409Z,33.01
2022-09-24T06:32:23.320Z,32.91
2022-09-24T06:33:23.323Z,32.91
2022-09-24T06:34:23.321Z,32.81
2022-09-24T06:35:23.320Z,32.91
2022-09-24T06:36:23.321Z,32.91
2022-09-24T06:37:23.325Z,32.91
2022-09-24T06:38:23.320Z,32.81
2022-09-24T06:39:23.320Z,32.71
2022-09-24T06:40:23.472Z,32.71
2022-09-24T06:41:23.323Z,32.91
2022-09-24T06:42:23.323Z,32.81
2022-09-24T06:43:23.321Z,32.81
2022-09-24T06:44:23.323Z,32.71
2022-09-24T06:45:23.326Z,32.81
2022-09-24T06:46:23.561Z,32.71
2022-09-24T06:47:23.332Z,32.91
2022-09-24T06:48:23.323Z,32.71
2022-09-24T06:49:23.322Z,32.71
2022-09-24T06:50:23.323Z,32.91
2022-09-24T06:51:23.323Z,32.91
2022-09-24T06:52:23.324Z,32.81
2022-09-24T06:53:23.323Z,32.71
2022-09-24T06:54:23.322Z,32.62
2022-09-24T06:55:23.321Z,32.62
2022-09-24T06:56:23.322Z,32.71
2022-09-24T06:57:28.659Z,32.81
2022-09-24T06:58:23.323Z,32.81
2022-09-24T06:59:23.322Z,32.81
2022-09-24T07:00:23.323Z,32.62
2022-09-24T07:01:23.414Z,32.62
2022-09-24T07:02:23.479Z,32.81
2022-09-24T07:03:23.331Z,32.60
2022-09-24T07:04:23.329Z,32.81
2022-09-24T07:05:23.335Z,32.62
2022-09-24T07:06:23.323Z,32.52
2022-09-24T07:07:23.324Z,32.62
2022-09-24T07:08:23.327Z,32.62
2022-09-24T07:09:23.324Z,32.71
2022-09-24T07:10:23.324Z,32.62
2022-09-24T07:11:23.327Z,32.81
2022-09-24T07:12:23.325Z,32.81
2022-09-24T07:13:23.326Z,32.62
2022-09-24T07:14:23.326Z,32.71
2022-09-24T07:15:23.336Z,32.62
2022-09-24T07:16:23.405Z,32.81
2022-09-24T07:17:23.344Z,32.91
2022-09-24T07:18:23.362Z,32.60
2022-09-24T07:19:23.334Z,32.71
2022-09-24T07:20:23.396Z,32.81
2022-09-24T07:21:23.325Z,32.71
2022-09-24T07:22:23.327Z,32.62
2022-09-24T07:23:23.329Z,32.71
2022-09-24T07:24:23.327Z,32.81
2022-09-24T07:25:23.326Z,32.91
2022-09-24T07:26:23.326Z,32.79
2022-09-24T07:27:23.325Z,32.91
2022-09-24T07:28:23.329Z,32.81
2022-09-24T07:29:23.326Z,33.01
2022-09-24T07:30:23.478Z,32.81
2022-09-24T07:31:23.391Z,32.81
2022-09-24T07:32:28.967Z,32.71
2022-09-24T07:33:23.326Z,32.91
2022-09-24T07:34:23.351Z,33.01
2022-09-24T07:35:23.326Z,32.91
2022-09-24T07:36:23.329Z,33.01
2022-09-24T07:37:23.326Z,32.89
2022-09-24T07:38:23.332Z,32.91
2022-09-24T07:39:23.326Z,32.91
2022-09-24T07:40:23.441Z,33.01
2022-09-24T07:41:23.328Z,32.91
2022-09-24T07:42:23.327Z,32.91
2022-09-24T07:43:23.327Z,33.01
2022-09-24T07:44:23.351Z,32.91
2022-09-24T07:45:23.328Z,32.91
2022-09-24T07:46:23.404Z,32.71
2022-09-24T07:47:23.327Z,32.91
2022-09-24T07:48:23.328Z,32.91
2022-09-24T07:49:23.328Z,32.91
2022-09-24T07:50:23.401Z,32.81
2022-09-24T07:51:23.329Z,33.01
2022-09-24T07:52:23.329Z,33.01
2022-09-24T07:53:23.328Z,33.01
2022-09-24T07:54:23.327Z,32.91
2022-09-24T07:55:23.329Z,33.01
2022-09-24T07:56:23.332Z,32.91
2022-09-24T07:57:23.329Z,32.91
2022-09-24T07:58:23.329Z,32.81
2022-09-24T07:59:23.328Z,33.11
2022-09-24T08:00:23.431Z,32.62
2022-09-24T08:01:23.394Z,33.01
2022-09-24T08:02:23.330Z,32.81
2022-09-24T08:03:23.389Z,33.01
2022-09-24T08:04:23.406Z,32.91
2022-09-24T08:05:23.330Z,32.91
2022-09-24T08:06:23.351Z,33.01
2022-09-24T08:07:23.329Z,33.01
2022-09-24T08:08:23.335Z,33.01
2022-09-24T08:09:23.330Z,32.91
2022-09-24T08:10:23.375Z,32.91
2022-09-24T08:11:23.330Z,33.01
2022-09-24T08:12:23.332Z,33.01
2022-09-24T08:13:27.497Z,33.01
2022-09-24T08:14:23.333Z,33.01
2022-09-24T08:15:23.332Z,33.01
2022-09-24T08:16:23.357Z,32.91
2022-09-24T08:17:23.332Z,32.91
2022-09-24T08:18:23.331Z,33.11
2022-09-24T08:19:23.330Z,33.11
2022-09-24T08:20:23.341Z,33.01
2022-09-24T08:21:23.332Z,33.01
2022-09-24T08:22:23.360Z,32.91
2022-09-24T08:23:23.333Z,32.91
2022-09-24T08:24:23.332Z,33.01
2022-09-24T08:25:23.333Z,32.91
2022-09-24T08:26:23.332Z,33.01
2022-09-24T08:27:23.333Z,33.01
2022-09-24T08:28:23.333Z,33.01
2022-09-24T08:29:23.332Z,33.01
2022-09-24T08:30:23.333Z,33.20
2022-09-24T08:31:23.433Z,33.01
2022-09-24T08:32:23.334Z,33.20
2022-09-24T08:33:23.334Z,32.91
2022-09-24T08:34:23.337Z,33.11
2022-09-24T08:35:23.332Z,32.91
2022-09-24T08:36:23.334Z,33.20
2022-09-24T08:37:23.333Z,33.20
2022-09-24T08:38:23.354Z,33.20
2022-09-24T08:39:23.332Z,33.20
2022-09-24T08:40:23.548Z,33.20
2022-09-24T08:41:23.335Z,33.29
2022-09-24T08:42:23.334Z,33.20
2022-09-24T08:43:23.335Z,33.20
2022-09-24T08:44:23.335Z,33.20
2022-09-24T08:45:23.334Z,33.29
2022-09-24T08:46:23.421Z,33.20
2022-09-24T08:47:23.336Z,33.20
2022-09-24T08:48:23.337Z,33.20
2022-09-24T08:49:23.335Z,33.11
2022-09-24T08:50:23.349Z,33.29
2022-09-24T08:51:23.334Z,33.29
2022-09-24T08:52:23.336Z,33.39
2022-09-24T08:53:23.335Z,33.20
2022-09-24T08:54:23.360Z,33.20
2022-09-24T08:55:23.335Z,33.20
2022-09-24T08:56:23.335Z,33.29
2022-09-24T08:57:23.336Z,33.20
2022-09-24T08:58:23.336Z,33.29
2022-09-24T08:59:23.336Z,33.29
2022-09-24T09:00:23.337Z,33.29
2022-09-24T09:01:23.440Z,33.29
2022-09-24T09:02:23.504Z,33.29
2022-09-24T09:03:23.336Z,33.29
2022-09-24T09:04:23.341Z,33.01
2022-09-24T09:05:23.338Z,33.29
2022-09-24T09:06:23.337Z,33.11
2022-09-24T09:07:23.341Z,33.01
2022-09-24T09:08:50.044Z,32.91
2022-09-24T09:09:23.343Z,33.01
2022-09-24T09:10:23.363Z,33.11
2022-09-24T09:11:23.336Z,33.01
2022-09-24T09:12:23.337Z,33.20
2022-09-24T09:13:23.339Z,32.91
2022-09-24T09:14:23.338Z,33.20
2022-09-24T09:15:23.337Z,33.69
2022-09-24T09:16:23.455Z,33.20
2022-09-24T09:17:23.339Z,33.20
2022-09-24T09:18:23.338Z,33.29
2022-09-24T09:19:23.338Z,33.29
2022-09-24T09:20:23.339Z,33.01
2022-09-24T09:21:23.339Z,33.11
2022-09-24T09:22:23.339Z,33.11
2022-09-24T09:23:23.340Z,33.20
2022-09-24T09:24:23.379Z,33.01
2022-09-24T09:25:23.338Z,33.29
2022-09-24T09:26:23.365Z,33.59
2022-09-24T09:27:23.340Z,33.11
2022-09-24T09:28:23.345Z,33.59
2022-09-24T09:29:23.339Z,33.01
2022-09-24T09:30:23.341Z,33.01
2022-09-24T09:31:23.383Z,32.91
2022-09-24T09:32:23.343Z,33.11
2022-09-24T09:33:23.340Z,33.20
2022-09-24T09:34:23.340Z,33.11
2022-09-24T09:35:23.339Z,33.39
2022-09-24T09:36:23.342Z,33.11
2022-09-24T09:37:25.903Z,33.11
2022-09-24T09:38:23.347Z,33.01
2022-09-24T09:39:23.339Z,33.20
2022-09-24T09:40:25.545Z,33.39
2022-09-24T09:41:23.340Z,33.29
2022-09-24T09:42:23.366Z,33.29
2022-09-24T09:43:23.340Z,33.28
2022-09-24T09:44:23.341Z,33.29
2022-09-24T09:45:27.706Z,33.09
2022-09-24T09:46:23.421Z,33.49
2022-09-24T09:47:23.341Z,33.11
2022-09-24T09:48:23.343Z,33.01
2022-09-24T09:49:23.342Z,33.20
2022-09-24T09:50:23.341Z,33.20
2022-09-24T09:51:23.560Z,33.59
2022-09-24T09:52:23.344Z,33.20
2022-09-24T09:53:23.346Z,33.29
2022-09-24T09:54:23.342Z,33.18
2022-09-24T09:55:23.342Z,33.29
2022-09-24T09:56:23.344Z,33.29
2022-09-24T09:57:23.343Z,33.29
2022-09-24T09:58:23.370Z,33.29
2022-09-24T09:59:28.855Z,33.20
2022-09-24T10:00:23.345Z,33.29
2022-09-24T10:01:23.343Z,33.20
2022-09-24T10:02:23.463Z,33.11
2022-09-24T10:03:23.382Z,32.91
2022-09-24T10:04:23.343Z,33.29
2022-09-24T10:05:27.236Z,33.20
2022-09-24T10:06:23.343Z,33.29
2022-09-24T10:07:23.344Z,33.39
2022-09-24T10:08:23.345Z,33.20
2022-09-24T10:09:23.347Z,32.91
2022-09-24T10:10:23.343Z,32.91
2022-09-24T10:11:23.344Z,33.20
2022-09-24T10:12:23.350Z,33.29
2022-09-24T10:13:23.345Z,33.29
2022-09-24T10:14:23.383Z,33.29
2022-09-24T10:15:23.344Z,33.59
2022-09-24T10:16:23.438Z,33.39
2022-09-24T10:17:23.345Z,33.59
2022-09-24T10:18:23.347Z,33.29
2022-09-24T10:19:23.346Z,33.20
2022-09-24T10:20:23.345Z,33.20
2022-09-24T10:21:27.560Z,33.01
2022-09-24T10:22:23.354Z,33.20
2022-09-24T10:23:23.354Z,33.01
2022-09-24T10:24:23.348Z,33.01
2022-09-24T10:25:23.345Z,33.01
2022-09-24T10:26:23.346Z,33.69
2022-09-24T10:27:23.345Z,33.20
2022-09-24T10:28:23.348Z,33.11
2022-09-24T10:29:23.347Z,33.39
2022-09-24T10:30:23.370Z,33.01
2022-09-24T10:31:23.413Z,33.49
2022-09-24T10:32:23.349Z,33.01
2022-09-24T10:33:23.346Z,33.29
2022-09-24T10:34:23.348Z,32.91
2022-09-24T10:35:23.347Z,33.01
2022-09-24T10:36:23.348Z,33.11
2022-09-24T10:37:23.348Z,33.01
2022-09-24T10:38:23.348Z,33.49
2022-09-24T10:39:23.349Z,33.01
2022-09-24T10:40:23.427Z,33.29
2022-09-24T10:41:23.347Z,33.11
2022-09-24T10:42:23.348Z,33.11
2022-09-24T10:43:23.348Z,33.29
2022-09-24T10:44:23.349Z,33.11
2022-09-24T10:45:23.349Z,33.11
2022-09-24T10:46:23.413Z,33.11
2022-09-24T10:47:23.349Z,33.20
2022-09-24T10:48:23.348Z,33.20
2022-09-24T10:49:23.348Z,33.11
2022-09-24T10:50:23.351Z,33.11
2022-09-24T10:51:28.820Z,33.20
2022-09-24T10:52:23.354Z,33.20
2022-09-24T10:53:23.349Z,33.29
2022-09-24T10:54:23.350Z,33.20
2022-09-24T10:55:23.350Z,33.11
2022-09-24T10:56:23.352Z,33.20
2022-09-24T10:57:23.350Z,33.39
2022-09-24T10:58:23.351Z,33.20
2022-09-24T10:59:23.351Z,33.29
2022-09-24T11:00:23.350Z,33.29
2022-09-24T11:01:23.429Z,33.29
2022-09-24T11:02:23.442Z,33.11
2022-09-24T11:03:23.401Z,33.29
2022-09-24T11:04:23.360Z,33.29
2022-09-24T11:05:23.351Z,33.29
2022-09-24T11:06:23.352Z,33.20
2022-09-24T11:07:23.352Z,33.29
2022-09-24T11:08:23.350Z,33.11
2022-09-24T11:09:23.352Z,33.11
2022-09-24T11:10:23.356Z,33.20
2022-09-24T11:11:23.355Z,33.11
2022-09-24T11:12:23.353Z,33.11
2022-09-24T11:13:23.352Z,33.20
2022-09-24T11:14:23.351Z,33.20
2022-09-24T11:15:23.354Z,33.20
2022-09-24T11:16:23.435Z,33.11
2022-09-24T11:17:23.354Z,33.29
2022-09-24T11:18:23.375Z,33.11
2022-09-24T11:19:23.353Z,33.29
2022-09-24T11:20:23.351Z,33.29
2022-09-24T11:21:23.353Z,33.20
2022-09-24T11:22:23.353Z,33.20
2022-09-24T11:23:23.354Z,33.20
2022-09-24T11:24:23.353Z,33.29
2022-09-24T11:25:23.356Z,33.20
2022-09-24T11:26:23.353Z,33.20
2022-09-24T11:27:23.353Z,33.29
2022-09-24T11:28:23.354Z,33.20
2022-09-24T11:29:23.355Z,33.20
2022-09-24T11:30:23.353Z,33.20
2022-09-24T11:31:23.463Z,33.20
2022-09-24T11:32:23.355Z,33.29
2022-09-24T11:33:23.450Z,33.11
2022-09-24T11:34:23.456Z,33.11
2022-09-24T11:35:23.356Z,33.20
2022-09-24T11:36:23.355Z,33.20
2022-09-24T11:37:23.356Z,33.20
2022-09-24T11:38:23.355Z,33.20
2022-09-24T11:39:23.355Z,33.20
2022-09-24T11:40:23.459Z,33.20
2022-09-24T11:41:23.355Z,33.49
2022-09-24T11:42:23.356Z,33.39
2022-09-24T11:43:23.357Z,33.29
2022-09-24T11:44:23.356Z,33.11
2022-09-24T11:45:23.357Z,33.20
2022-09-24T11:46:23.453Z,33.20
2022-09-24T11:47:23.357Z,33.49
2022-09-24T11:48:23.356Z,33.59
2022-09-24T11:49:23.360Z,33.11
2022-09-24T11:50:23.378Z,32.91
2022-09-24T11:51:23.364Z,33.39
2022-09-24T11:52:23.356Z,33.39
2022-09-24T11:53:23.358Z,33.39
2022-09-24T11:54:23.358Z,33.20
2022-09-24T11:55:23.358Z,33.11
2022-09-24T11:56:23.357Z,33.39
2022-09-24T11:57:23.359Z,33.11
2022-09-24T11:58:23.356Z,33.11
2022-09-24T11:59:23.359Z,33.29
2022-09-24T12:00:23.358Z,33.20
2022-09-24T12:01:23.403Z,33.11
2022-09-24T12:02:23.430Z,33.20
2022-09-24T12:03:26.213Z,33.20
2022-09-24T12:04:23.358Z,33.39
2022-09-24T12:05:23.361Z,33.20
2022-09-24T12:06:23.409Z,33.20
2022-09-24T12:07:23.359Z,33.29
2022-09-24T12:08:23.359Z,33.29
2022-09-24T12:09:23.360Z,33.39
2022-09-24T12:10:23.359Z,33.29
2022-09-24T12:11:23.359Z,33.49
2022-09-24T12:12:23.360Z,33.11
2022-09-24T12:13:23.363Z,33.49
2022-09-24T12:14:23.368Z,33.29
2022-09-24T12:15:23.361Z,33.11
2022-09-24T12:16:23.453Z,33.29
2022-09-24T12:17:23.361Z,33.29
2022-09-24T12:18:23.369Z,33.29
2022-09-24T12:19:23.391Z,33.29
2022-09-24T12:20:23.385Z,33.29
2022-09-24T12:21:23.397Z,33.49
2022-09-24T12:22:23.386Z,33.20
2022-09-24T12:23:23.364Z,33.49
2022-09-24T12:24:23.361Z,33.29
2022-09-24T12:25:23.362Z,33.29
2022-09-24T12:26:23.362Z,33.20
2022-09-24T12:27:23.362Z,33.49
2022-09-24T12:28:23.362Z,33.20
2022-09-24T12:29:23.364Z,33.20
2022-09-24T12:30:23.382Z,33.20
2022-09-24T12:31:23.446Z,33.49
2022-09-24T12:32:23.362Z,33.20
2022-09-24T12:33:23.363Z,33.29
2022-09-24T12:34:23.362Z,33.29
2022-09-24T12:35:23.363Z,33.29
2022-09-24T12:36:23.365Z,33.20
2022-09-24T12:37:23.466Z,33.20
2022-09-24T12:38:23.466Z,33.39
2022-09-24T12:39:23.364Z,33.39
2022-09-24T12:40:23.418Z,33.39
2022-09-24T12:41:23.364Z,33.29
2022-09-24T12:42:23.364Z,33.39
2022-09-24T12:43:23.363Z,33.29
2022-09-24T12:44:23.363Z,33.20
2022-09-24T12:45:23.365Z,33.20
2022-09-24T12:46:23.476Z,33.29
2022-09-24T12:47:23.366Z,33.29
2022-09-24T12:48:23.364Z,33.20
2022-09-24T12:49:23.366Z,33.11
2022-09-24T12:50:23.366Z,33.11
2022-09-24T12:51:23.365Z,33.11
2022-09-24T12:52:23.367Z,33.28